Time;durP1;ratioP1;P1;durP2;ratioP2;P2;SDS_P1;SDS_P2;PMS_P1;PMS_P2;Temp;Humidity;BMP_temperature;BMP_pressure;BME280_temperature;BME280_humidity;BME280_pressure;Samples;Min_cycle;Max_cycle;Signal;HPM_P1;HPM_P2
2021/04/27 00:01:33;;;;;;;1.70;1.10;;;3.20;99.90;;;;;;4963992;28;20050;-62
2021/04/27 00:04:00;;;;;;;2.10;1.50;;;3.20;99.90;;;;;;4963509;28;20046;-62
2021/04/27 00:06:26;;;;;;;2.10;1.63;;;3.20;99.90;;;;;;4962679;28;20061;-63
2021/04/27 00:08:53;;;;;;;2.22;1.20;;;3.20;99.90;;;;;;4962263;28;20394;-62
2021/04/27 00:11:20;;;;;;;0.90;0.90;;;3.20;99.90;;;;;;4962321;28;20051;-62
2021/04/27 00:13:46;;;;;;;2.13;0.85;;;3.20;99.90;;;;;;4965021;28;20398;-64
2021/04/27 00:16:13;;;;;;;2.00;1.10;;;3.20;99.90;;;;;;4968175;28;20121;-62
2021/04/27 00:18:39;;;;;;;1.23;0.90;;;3.20;99.90;;;;;;4967553;28;20075;-63
2021/04/27 00:21:06;;;;;;;1.70;1.17;;;3.20;99.90;;;;;;4964759;28;20050;-62
2021/04/27 00:23:33;;;;;;;3.67;1.17;;;3.20;99.90;;;;;;4964979;28;20055;-62
2021/04/27 00:25:59;;;;;;;2.05;0.80;;;3.20;99.90;;;;;;4981560;28;20046;-62
2021/04/27 00:28:26;;;;;;;1.23;0.73;;;3.10;99.90;;;;;;4965679;28;20448;-64
2021/04/27 00:30:53;;;;;;;2.67;1.10;;;3.10;99.90;;;;;;4964458;28;20137;-63
2021/04/27 00:33:19;;;;;;;1.25;0.82;;;3.10;99.90;;;;;;4964915;28;20078;-63
2021/04/27 00:35:45;;;;;;;2.30;0.82;;;3.10;99.90;;;;;;4969633;28;20055;-62
2021/04/27 00:38:12;;;;;;;2.60;1.05;;;3.00;99.90;;;;;;4965905;28;20039;-63
2021/04/27 00:40:43;;;;;;;2.35;0.90;;;3.00;99.90;;;;;;4966834;28;20057;-64
2021/04/27 00:43:10;;;;;;;2.88;0.85;;;3.10;99.90;;;;;;4966489;28;20120;-62
2021/04/27 00:45:36;;;;;;;2.05;0.88;;;3.10;99.90;;;;;;4967101;28;20051;-64
2021/04/27 00:48:03;;;;;;;3.28;0.82;;;3.10;99.90;;;;;;4967337;28;20137;-63
2021/04/27 00:50:40;;;;;;;1.10;0.65;;;3.10;99.90;;;;;;4968309;28;20182;-62
2021/04/27 00:53:07;;;;;;;2.95;0.82;;;3.00;99.90;;;;;;4961738;28;20262;-62
2021/04/27 00:55:34;;;;;;;3.00;1.02;;;3.00;99.90;;;;;;4947218;28;20523;-63
2021/04/27 00:58:02;;;;;;;6.40;1.05;;;3.10;99.90;;;;;;4962645;28;20058;-64
2021/04/27 01:00:35;;;;;;;2.38;0.77;;;3.00;99.90;;;;;;4973048;28;20050;-62
2021/04/27 01:03:02;;;;;;;3.05;0.90;;;3.00;99.90;;;;;;4965724;28;20042;-62
2021/04/27 01:05:31;;;;;;;1.70;0.93;;;3.10;99.90;;;;;;4965191;28;20388;-63
2021/04/27 01:08:07;;;;;;;0.95;0.90;;;3.10;99.90;;;;;;4965684;28;20342;-62
2021/04/27 01:10:52;;;;;;;2.85;1.00;;;3.10;99.90;;;;;;4953567;28;20056;-61
2021/04/27 01:14:07;;;;;;;1.17;0.65;;;3.00;99.90;;;;;;4963092;28;20065;-63
2021/04/27 01:16:49;;;;;;;2.05;0.73;;;3.00;99.90;;;;;;4926281;28;20053;-62
2021/04/27 01:19:26;;;;;;;3.45;1.77;;;3.00;99.90;;;;;;4951675;28;20673;-62
2021/04/27 01:21:58;;;;;;;1.23;0.90;;;3.00;99.90;;;;;;4962510;28;20059;-60
2021/04/27 01:24:38;;;;;;;;;;;3.10;99.90;;;;;;4967146;28;20076;-62
2021/04/27 01:27:05;;;;;;;2.35;1.00;;;3.10;99.90;;;;;;4962851;28;19926;-62
2021/04/27 01:29:33;;;;;;;3.00;1.65;;;3.10;99.90;;;;;;4961456;28;20088;-63
2021/04/27 01:32:04;;;;;;;1.98;0.95;;;3.10;99.90;;;;;;4960555;28;20121;-62
2021/04/27 01:34:37;;;;;;;2.47;0.85;;;3.20;99.90;;;;;;4948144;28;20757;-62
2021/04/27 01:37:10;;;;;;;3.33;1.20;;;3.20;99.90;;;;;;4962165;28;20054;-63
2021/04/27 01:39:38;;;;;;;1.75;1.30;;;3.20;99.90;;;;;;4961032;28;20720;-61
2021/04/27 01:42:07;;;;;;;1.55;0.75;;;3.20;99.90;;;;;;4950632;28;20067;-62
2021/04/27 01:44:36;;;;;;;0.60;0.60;;;3.20;99.90;;;;;;4957723;28;20087;-62
2021/04/27 01:47:04;;;;;;;1.15;0.70;;;3.20;99.90;;;;;;4963494;28;20051;-62
2021/04/27 01:49:31;;;;;;;2.40;0.98;;;3.20;99.90;;;;;;4944593;28;20062;-63
2021/04/27 01:52:16;;;;;;;2.03;0.90;;;3.20;99.90;;;;;;4966606;28;20081;-62
2021/04/27 01:54:52;;;;;;;1.05;0.73;;;3.20;99.90;;;;;;4963967;28;20129;-62
2021/04/27 01:57:19;;;;;;;1.30;1.20;;;3.20;99.90;;;;;;4979402;28;20050;-64
2021/04/27 01:59:47;;;;;;;2.10;0.95;;;3.20;99.90;;;;;;4947707;28;20640;-62
2021/04/27 02:02:24;;;;;;;3.17;0.90;;;3.20;99.90;;;;;;4980046;28;20442;-61
2021/04/27 02:05:16;;;;;;;2.33;0.95;;;3.20;99.90;;;;;;4962022;28;20543;-65
2021/04/27 02:07:57;;;;;;;5.15;1.10;;;3.20;99.90;;;;;;4945842;28;20046;-64
2021/04/27 02:10:27;;;;;;;1.23;1.13;;;3.20;99.90;;;;;;4949640;28;20117;-62
2021/04/27 02:13:00;;;;;;;2.53;1.15;;;3.10;99.90;;;;;;4964431;28;20061;-64
2021/04/27 02:15:28;;;;;;;0.70;0.52;;;3.20;99.90;;;;;;4968827;28;20053;-63
2021/04/27 02:18:16;;;;;;;1.95;0.98;;;3.20;99.90;;;;;;4969670;28;20129;-61
2021/04/27 02:20:44;;;;;;;3.15;1.60;;;3.20;99.90;;;;;;4951416;28;20065;-61
2021/04/27 02:23:35;;;;;;;1.55;1.00;;;3.20;99.90;;;;;;4964224;28;20078;-62
2021/04/27 02:26:11;;;;;;;2.55;1.20;;;3.20;99.90;;;;;;4970012;28;20055;-62
2021/04/27 02:28:44;;;;;;;1.50;1.33;;;3.10;99.90;;;;;;4962213;28;20074;-63
2021/04/27 02:31:12;;;;;;;3.53;0.90;;;3.20;99.90;;;;;;4965304;28;20051;-62
2021/04/27 02:33:40;;;;;;;3.03;1.10;;;3.20;99.90;;;;;;4963397;28;20113;-61
2021/04/27 02:36:07;;;;;;;1.77;1.13;;;3.10;99.90;;;;;;4949117;28;20058;-63
2021/04/27 02:38:50;;;;;;;2.33;1.10;;;3.20;99.90;;;;;;4963778;28;20568;-62
2021/04/27 02:41:37;;;;;;;1.73;1.25;;;3.20;99.90;;;;;;4963446;28;20062;-60
2021/04/27 02:44:15;;;;;;;4.60;1.23;;;3.10;99.90;;;;;;4958908;28;20055;-62
2021/04/27 02:46:45;;;;;;;1.13;0.73;;;3.10;99.90;;;;;;4978525;28;20043;-62
2021/04/27 02:49:13;;;;;;;4.75;2.72;;;3.10;99.90;;;;;;4945379;28;20128;-60
2021/04/27 02:51:46;;;;;;;3.80;1.15;;;3.10;99.90;;;;;;4950090;28;20053;-61
2021/04/27 02:54:14;;;;;;;1.10;0.77;;;3.10;99.90;;;;;;4945983;28;20150;-65
2021/04/27 02:56:41;;;;;;;3.45;1.25;;;3.10;99.90;;;;;;4945915;28;20071;-62
2021/04/27 02:59:11;;;;;;;0.90;0.70;;;3.10;99.90;;;;;;4944672;28;20050;-64
2021/04/27 03:01:39;;;;;;;1.23;1.05;;;3.10;99.90;;;;;;4946737;28;20074;-62
2021/04/27 03:04:07;;;;;;;1.52;1.30;;;3.10;99.90;;;;;;4978702;28;20055;-64
2021/04/27 03:06:53;;;;;;;1.23;0.85;;;3.10;99.90;;;;;;4965613;28;20145;-62
2021/04/27 03:09:27;;;;;;;6.70;2.10;;;3.10;99.90;;;;;;4961401;28;20058;-63
2021/04/27 03:11:54;;;;;;;2.67;1.20;;;3.10;99.90;;;;;;4949211;28;20475;-64
2021/04/27 03:14:20;;;;;;;1.48;1.02;;;3.10;99.90;;;;;;4977985;28;20107;-64
2021/04/27 03:16:48;;;;;;;0.88;0.77;;;3.10;99.90;;;;;;4952170;28;20051;-64
2021/04/27 03:19:15;;;;;;;2.65;0.93;;;3.10;99.90;;;;;;4943527;28;20062;-62
2021/04/27 03:21:51;;;;;;;4.57;1.10;;;3.10;99.90;;;;;;4948887;28;20049;-62
2021/04/27 03:24:18;;;;;;;3.72;1.08;;;3.10;99.90;;;;;;4945141;28;20050;-62
2021/04/27 03:26:44;;;;;;;1.20;0.60;;;3.10;99.90;;;;;;4965958;28;20058;-61
2021/04/27 03:29:20;;;;;;;1.38;0.80;;;3.10;99.90;;;;;;4939363;28;20051;-64
2021/04/27 03:31:54;;;;;;;2.28;0.90;;;3.10;99.90;;;;;;4947101;28;20557;-62
2021/04/27 03:34:21;;;;;;;1.60;1.50;;;3.10;99.90;;;;;;4960371;28;20818;-63
2021/04/27 03:36:47;;;;;;;0.98;0.70;;;3.10;99.90;;;;;;4946407;28;20150;-63
2021/04/27 03:39:14;;;;;;;1.52;1.02;;;3.10;99.90;;;;;;4976219;28;20046;-63
2021/04/27 03:41:41;;;;;;;1.65;1.15;;;3.10;99.90;;;;;;4948465;28;20051;-63
2021/04/27 03:44:07;;;;;;;1.05;0.90;;;3.10;99.90;;;;;;4944458;28;20142;-64
2021/04/27 03:46:36;;;;;;;1.13;1.00;;;3.10;99.90;;;;;;4944775;28;20047;-62
2021/04/27 03:49:04;;;;;;;3.88;1.33;;;3.10;99.90;;;;;;4977409;28;20058;-61
2021/04/27 03:51:31;;;;;;;3.38;1.83;;;3.10;99.90;;;;;;4961912;28;20480;-62
2021/04/27 03:54:00;;;;;;;1.73;0.90;;;3.10;99.90;;;;;;4962559;28;20050;-61
2021/04/27 03:56:33;;;;;;;4.35;0.95;;;3.10;99.90;;;;;;4944653;28;20050;-64
2021/04/27 03:59:03;;;;;;;2.43;1.27;;;3.10;99.90;;;;;;4960696;28;20350;-63
2021/04/27 04:01:31;;;;;;;1.20;0.75;;;3.10;99.90;;;;;;4945226;28;20851;-63
2021/04/27 04:03:58;;;;;;;1.05;0.77;;;3.10;99.90;;;;;;4944729;28;20392;-62
2021/04/27 04:06:25;;;;;;;2.80;0.73;;;3.10;99.90;;;;;;4962473;28;20519;-62
2021/04/27 04:09:07;;;;;;;1.13;1.00;;;3.20;99.90;;;;;;4963980;28;20087;-62
2021/04/27 04:11:43;;;;;;;4.10;1.48;;;3.20;99.90;;;;;;4974869;28;20058;-63
2021/04/27 04:14:10;;;;;;;2.05;0.95;;;3.20;99.90;;;;;;4946776;28;20121;-62
2021/04/27 04:16:55;;;;;;;3.35;1.20;;;3.20;99.90;;;;;;4962519;28;20164;-62
2021/04/27 04:19:22;;;;;;;2.58;0.80;;;3.30;99.90;;;;;;4946932;28;20047;-62
2021/04/27 04:21:57;;;;;;;1.35;0.98;;;3.30;99.90;;;;;;4944826;28;20053;-63
2021/04/27 04:24:24;;;;;;;1.83;0.85;;;3.30;99.90;;;;;;4945772;28;20133;-61
2021/04/27 04:26:51;;;;;;;2.80;0.60;;;3.30;99.90;;;;;;4945874;28;20072;-62
2021/04/27 04:29:29;;;;;;;1.38;1.27;;;3.30;99.90;;;;;;4942618;28;20047;-63
2021/04/27 04:32:30;;;;;;;1.40;1.30;;;3.30;99.90;;;;;;4900987;29;20288;-62
2021/04/27 04:35:21;;;;;;;1.98;1.17;;;3.30;99.90;;;;;;4956732;28;20054;-61
2021/04/27 04:38:18;;;;;;;2.45;0.88;;;3.30;99.90;;;;;;4892664;28;20041;-62
2021/04/27 04:41:04;;;;;;;4.82;1.30;;;3.30;99.90;;;;;;4960623;28;20051;-62
2021/04/27 04:43:49;;;;;;;2.55;1.35;;;3.40;99.90;;;;;;4960758;28;20519;-59
2021/04/27 04:46:34;;;;;;;3.70;1.30;;;3.40;99.90;;;;;;4961359;28;20608;-61
2021/04/27 04:49:20;;;;;;;2.17;1.42;;;3.40;99.90;;;;;;4961236;28;20069;-61
2021/04/27 04:52:02;;;;;;;2.65;0.80;;;3.50;99.90;;;;;;4957627;28;20047;-64
2021/04/27 04:54:47;;;;;;;2.45;1.15;;;3.50;99.90;;;;;;4963809;28;20134;-64
2021/04/27 04:57:43;;;;;;;13.63;1.55;;;3.50;99.90;;;;;;4971251;28;20093;-63
2021/04/27 05:00:14;;;;;;;1.73;1.15;;;3.50;99.90;;;;;;4943692;28;20054;-62
2021/04/27 05:03:03;;;;;;;1.48;0.98;;;3.50;99.90;;;;;;4967295;28;20051;-63
2021/04/27 05:05:49;;;;;;;1.35;0.80;;;3.50;99.90;;;;;;4964613;28;20548;-63
2021/04/27 05:08:46;;;;;;;2.38;1.52;;;3.50;99.90;;;;;;4909955;28;20052;-63
2021/04/27 05:11:43;;;;;;;2.28;1.00;;;3.50;99.90;;;;;;4928793;28;20090;-60
2021/04/27 05:14:30;;;;;;;3.60;0.82;;;3.40;99.90;;;;;;4967637;28;20129;-62
2021/04/27 05:16:59;;;;;;;2.30;1.23;;;3.40;99.90;;;;;;4967693;28;20092;-60
2021/04/27 05:19:26;;;;;;;3.15;1.00;;;3.40;99.90;;;;;;4967902;28;20050;-62
2021/04/27 05:21:53;;;;;;;2.30;1.30;;;3.40;99.90;;;;;;4949699;28;20130;-64
2021/04/27 05:24:21;;;;;;;4.63;1.95;;;3.30;99.90;;;;;;4949621;28;20046;-62
2021/04/27 05:26:49;;;;;;;1.30;1.05;;;3.30;99.90;;;;;;4948787;28;20053;-62
2021/04/27 05:29:16;;;;;;;4.60;1.30;;;3.30;99.90;;;;;;4944717;28;20051;-62
2021/04/27 05:31:42;;;;;;;2.00;0.75;;;3.30;99.90;;;;;;4968266;28;20496;-62
2021/04/27 05:34:09;;;;;;;3.72;1.52;;;3.30;99.90;;;;;;4974343;28;20078;-64
2021/04/27 05:36:35;;;;;;;6.60;1.27;;;3.40;99.90;;;;;;4970633;28;20061;-66
2021/04/27 05:39:02;;;;;;;1.42;0.90;;;3.40;99.90;;;;;;4971211;28;20581;-62
2021/04/27 05:41:29;;;;;;;8.43;1.98;;;3.40;99.90;;;;;;4964640;28;20101;-62
2021/04/27 05:43:55;;;;;;;3.60;1.55;;;3.40;99.90;;;;;;4966430;28;20572;-64
2021/04/27 05:46:21;;;;;;;3.60;1.25;;;3.50;99.90;;;;;;4962442;28;20362;-63
2021/04/27 05:48:48;;;;;;;4.00;1.40;;;3.50;99.90;;;;;;4965030;28;20516;-64
2021/04/27 05:51:15;;;;;;;5.40;1.30;;;3.50;99.90;;;;;;4961070;28;20059;-64
2021/04/27 05:53:41;;;;;;;1.13;1.00;;;3.60;99.90;;;;;;4964013;28;20054;-64
2021/04/27 05:56:08;;;;;;;3.17;1.30;;;3.60;99.90;;;;;;4980993;28;20385;-63
2021/04/27 05:58:34;;;;;;;6.85;1.30;;;3.60;99.90;;;;;;4962406;28;20093;-63
2021/04/27 06:01:01;;;;;;;3.28;1.55;;;3.70;99.90;;;;;;4960619;28;20061;-63
2021/04/27 06:03:34;;;;;;;2.17;0.90;;;3.70;99.90;;;;;;4247250;28;10001915;-64
2021/04/27 06:06:00;;;;;;;3.47;1.25;;;3.60;99.90;;;;;;1021944;28;10002374;-64
2021/04/27 06:08:27;;;;;;;3.92;1.27;;;3.60;99.90;;;;;;4963029;28;20054;-63
2021/04/27 06:10:53;;;;;;;2.95;1.35;;;3.60;99.90;;;;;;4965374;28;20063;-65
2021/04/27 06:13:19;;;;;;;1.73;1.08;;;3.60;99.90;;;;;;4960066;28;20042;-63
2021/04/27 06:15:46;;;;;;;4.55;1.45;;;3.60;99.90;;;;;;4967425;28;20149;-62
2021/04/27 06:18:12;;;;;;;0.75;0.73;;;3.70;99.90;;;;;;4964437;28;20050;-62
2021/04/27 06:20:39;;;;;;;2.05;1.30;;;3.70;99.90;;;;;;4966744;28;20050;-62
2021/04/27 06:23:06;;;;;;;2.38;1.17;;;3.60;99.90;;;;;;4964897;28;20046;-63
2021/04/27 06:25:32;;;;;;;1.45;0.80;;;3.60;99.90;;;;;;4964626;28;20050;-62
2021/04/27 06:27:59;;;;;;;5.03;1.52;;;3.70;99.90;;;;;;4964265;28;20461;-62
2021/04/27 06:30:26;;;;;;;2.78;1.15;;;3.70;99.90;;;;;;4964812;28;20043;-63
2021/04/27 06:32:53;;;;;;;3.90;1.80;;;3.80;99.90;;;;;;4967397;28;20061;-62
2021/04/27 06:35:21;;;;;;;3.17;0.98;;;3.90;99.90;;;;;;4963821;28;20549;-62
2021/04/27 06:37:47;;;;;;;4.03;1.35;;;3.90;99.90;;;;;;4964020;28;20455;-63
2021/04/27 06:40:14;;;;;;;4.53;1.63;;;3.90;99.90;;;;;;4966734;28;20073;-63
2021/04/27 06:42:41;;;;;;;6.28;1.38;;;3.90;99.90;;;;;;4945947;28;20113;-63
2021/04/27 06:45:08;;;;;;;2.70;1.25;;;3.90;99.90;;;;;;4966655;28;20067;-63
2021/04/27 06:47:36;;;;;;;2.97;2.58;;;4.00;99.90;;;;;;4944525;28;20047;-64
2021/04/27 06:50:04;;;;;;;2.55;1.10;;;4.00;99.90;;;;;;4967031;28;20051;-61
2021/04/27 06:52:31;;;;;;;5.60;1.40;;;4.00;99.90;;;;;;4963598;28;20166;-63
2021/04/27 06:54:57;;;;;;;3.05;1.58;;;4.00;99.90;;;;;;4966084;28;20440;-63
2021/04/27 06:57:25;;;;;;;2.60;1.70;;;4.00;99.90;;;;;;4957153;28;20066;-65
2021/04/27 06:59:51;;;;;;;1.33;1.00;;;4.00;99.90;;;;;;4964091;28;20124;-62
2021/04/27 07:02:19;;;;;;;6.53;1.58;;;4.10;99.90;;;;;;4949486;28;20133;-60
2021/04/27 07:04:46;;;;;;;3.83;1.08;;;4.10;99.90;;;;;;4964232;28;20042;-61
2021/04/27 07:07:12;;;;;;;3.88;2.42;;;4.10;99.90;;;;;;4968815;28;20055;-63
2021/04/27 07:09:39;;;;;;;2.50;0.90;;;4.10;99.90;;;;;;4964338;28;20137;-62
2021/04/27 07:12:06;;;;;;;5.88;1.65;;;4.00;99.90;;;;;;4968617;28;20062;-62
2021/04/27 07:14:33;;;;;;;3.17;1.40;;;4.00;99.90;;;;;;4962346;28;20432;-62
2021/04/27 07:16:59;;;;;;;3.55;1.45;;;4.00;99.90;;;;;;4966308;28;20050;-61
2021/04/27 07:19:26;;;;;;;1.83;1.45;;;3.90;99.90;;;;;;4963273;28;20058;-62
2021/04/27 07:21:53;;;;;;;2.20;1.35;;;4.10;99.90;;;;;;4965821;28;20086;-60
2021/04/27 07:24:21;;;;;;;4.22;1.48;;;4.20;99.90;;;;;;4966917;28;20051;-63
2021/04/27 07:26:49;;;;;;;7.22;4.63;;;4.20;99.90;;;;;;4965688;28;20053;-62
2021/04/27 07:29:16;;;;;;;5.25;1.70;;;4.30;99.90;;;;;;4957987;28;20074;-66
2021/04/27 07:31:43;;;;;;;1.25;1.15;;;4.40;99.90;;;;;;4965446;28;20054;-62
2021/04/27 07:34:10;;;;;;;2.42;1.00;;;4.40;99.90;;;;;;4964055;28;20077;-63
2021/04/27 07:36:37;;;;;;;5.65;1.98;;;4.40;99.90;;;;;;4963949;28;20074;-63
2021/04/27 07:39:07;;;;;;;3.63;1.38;;;4.30;99.90;;;;;;4965671;28;20053;-62
2021/04/27 07:41:34;;;;;;;7.03;1.60;;;4.40;99.90;;;;;;4963315;28;20189;-62
2021/04/27 07:44:01;;;;;;;4.95;1.33;;;4.40;99.90;;;;;;4966752;28;20066;-62
2021/04/27 07:46:27;;;;;;;5.70;1.67;;;4.30;99.90;;;;;;4965744;28;20129;-63
2021/04/27 07:48:54;;;;;;;2.47;1.73;;;4.30;99.90;;;;;;4966549;28;20654;-62
2021/04/27 07:51:22;;;;;;;5.97;1.38;;;4.40;99.90;;;;;;4960641;28;20051;-63
2021/04/27 07:53:48;;;;;;;6.88;1.67;;;4.50;99.90;;;;;;4964785;28;20039;-62
2021/04/27 07:56:15;;;;;;;4.60;2.53;;;4.50;99.90;;;;;;4965448;28;20512;-62
2021/04/27 07:58:42;;;;;;;3.20;1.30;;;4.40;99.90;;;;;;4965703;28;20059;-62
2021/04/27 08:01:08;;;;;;;3.95;2.42;;;4.50;99.90;;;;;;4963831;28;20051;-63
2021/04/27 08:03:37;;;;;;;3.42;1.65;;;4.60;99.90;;;;;;4963606;28;20047;-63
2021/04/27 08:06:05;;;;;;;2.55;1.70;;;4.60;99.90;;;;;;4962561;28;20058;-61
2021/04/27 08:08:31;;;;;;;3.72;1.70;;;4.70;99.90;;;;;;4963853;28;20066;-60
2021/04/27 08:10:58;;;;;;;1.70;1.60;;;4.80;99.90;;;;;;4967886;28;20058;-62
2021/04/27 08:13:24;;;;;;;3.00;1.27;;;4.50;99.90;;;;;;4962205;28;20098;-61
2021/04/27 08:15:51;;;;;;;9.07;1.88;;;4.60;99.90;;;;;;4963720;28;20055;-62
2021/04/27 08:18:18;;;;;;;2.13;1.17;;;4.70;99.90;;;;;;4963318;28;20061;-62
2021/04/27 08:20:44;;;;;;;4.55;1.85;;;4.80;99.90;;;;;;4965898;28;20059;-61
2021/04/27 08:23:12;;;;;;;1.77;1.63;;;4.80;99.90;;;;;;4962116;28;20082;-63
2021/04/27 08:25:56;;;;;;;3.92;2.25;;;4.70;99.90;;;;;;4964008;28;21337;-63
2021/04/27 08:28:23;;;;;;;4.95;1.83;;;4.70;99.90;;;;;;4961635;28;20066;-62
2021/04/27 08:30:50;;;;;;;4.13;2.25;;;4.60;99.90;;;;;;4965382;28;20047;-62
2021/04/27 08:33:16;;;;;;;3.03;2.40;;;4.70;99.90;;;;;;4959382;28;20146;-62
2021/04/27 08:35:44;;;;;;;3.22;1.67;;;4.70;99.90;;;;;;4967295;28;20043;-62
2021/04/27 08:38:11;;;;;;;2.65;1.73;;;4.70;99.90;;;;;;4965682;28;20039;-62
2021/04/27 08:40:38;;;;;;;8.65;1.30;;;4.70;99.90;;;;;;4968236;28;20046;-62
2021/04/27 08:43:05;;;;;;;6.57;1.60;;;4.80;99.90;;;;;;4968472;28;20496;-62
2021/04/27 08:45:33;;;;;;;6.07;2.25;;;5.00;99.90;;;;;;4966859;28;20536;-63
2021/04/27 08:48:00;;;;;;;4.07;1.45;;;5.00;99.90;;;;;;4966543;28;20142;-60
2021/04/27 08:50:26;;;;;;;4.07;1.60;;;5.10;99.90;;;;;;4950995;28;20050;-62
2021/04/27 08:52:54;;;;;;;4.88;1.70;;;5.10;99.90;;;;;;4950179;28;20180;-64
2021/04/27 08:55:21;;;;;;;5.18;2.08;;;5.10;99.90;;;;;;4970193;28;20046;-62
2021/04/27 08:57:48;;;;;;;3.72;1.60;;;5.10;99.90;;;;;;4967682;28;20046;-63
2021/04/27 09:00:18;;;;;;;3.65;1.50;;;5.10;99.90;;;;;;4970412;28;20050;-63
2021/04/27 09:02:53;;;;;;;2.30;1.83;;;5.10;99.90;;;;;;4968433;28;20757;-63
2021/04/27 09:05:26;;;;;;;5.32;1.83;;;5.10;99.90;;;;;;4965091;28;20054;-63
2021/04/27 09:07:53;;;;;;;4.95;1.90;;;5.20;99.90;;;;;;4968592;28;20054;-64
2021/04/27 09:10:23;;;;;;;4.55;1.85;;;5.00;99.90;;;;;;4970014;28;20462;-63
2021/04/27 09:12:56;;;;;;;2.28;1.80;;;5.00;99.90;;;;;;4964623;28;20042;-64
2021/04/27 09:15:25;;;;;;;2.97;1.45;;;5.10;99.90;;;;;;4965014;28;20070;-63
2021/04/27 09:17:51;;;;;;;5.43;1.40;;;5.00;99.90;;;;;;4967354;28;20066;-62
2021/04/27 09:20:18;;;;;;;5.65;2.63;;;5.10;99.90;;;;;;4968386;28;20079;-65
2021/04/27 09:22:45;;;;;;;2.92;1.55;;;5.20;99.90;;;;;;4968999;28;20337;-63
2021/04/27 09:25:13;;;;;;;6.32;2.38;;;5.00;99.90;;;;;;4971606;28;20082;-63
2021/04/27 09:27:47;;;;;;;5.50;2.42;;;5.10;99.90;;;;;;4964234;28;20527;-63
2021/04/27 09:30:20;;;;;;;5.03;1.60;;;5.10;99.90;;;;;;4966723;28;20050;-64
2021/04/27 09:33:09;;;;;;;9.32;2.10;;;5.10;99.90;;;;;;4966959;28;20047;-63
2021/04/27 09:35:39;;;;;;;2.45;1.33;;;5.20;99.90;;;;;;4964435;28;20071;-64
2021/04/27 09:38:19;;;;;;;7.82;2.33;;;5.20;99.90;;;;;;4967576;28;20404;-63
2021/04/27 09:40:57;;;;;;;3.50;1.60;;;5.20;99.90;;;;;;4966010;28;20062;-63
2021/04/27 09:43:34;;;;;;;2.50;2.05;;;5.30;99.90;;;;;;4965978;28;20061;-64
2021/04/27 09:46:06;;;;;;;6.10;1.45;;;5.30;99.90;;;;;;4967434;28;20050;-62
2021/04/27 09:48:53;;;;;;;2.60;1.25;;;5.30;99.90;;;;;;4966722;28;20067;-63
2021/04/27 09:51:40;;;;;;;1.90;1.33;;;5.40;99.90;;;;;;4963117;28;20142;-63
2021/04/27 09:54:12;;;;;;;3.75;1.10;;;5.40;99.90;;;;;;4967750;28;20051;-65
2021/04/27 09:56:47;;;;;;;1.48;1.38;;;5.50;99.90;;;;;;4965247;28;20597;-63
2021/04/27 09:59:15;;;;;;;6.53;1.67;;;5.40;99.90;;;;;;4965705;28;20043;-62
2021/04/27 10:01:49;;;;;;;1.85;1.08;;;5.60;99.90;;;;;;4964445;28;20043;-63
2021/04/27 10:04:37;;;;;;;3.90;2.53;;;5.50;99.90;;;;;;4966291;28;20165;-64
2021/04/27 10:07:04;;;;;;;5.15;2.20;;;5.40;99.90;;;;;;4964439;28;20470;-63
2021/04/27 10:09:32;;;;;;;5.15;1.58;;;5.50;99.90;;;;;;4962534;28;20057;-63
2021/04/27 10:12:01;;;;;;;9.27;3.20;;;5.60;99.90;;;;;;4965642;28;20049;-65
2021/04/27 10:14:27;;;;;;;2.08;1.40;;;5.60;99.90;;;;;;4964676;28;20548;-63
2021/04/27 10:16:54;;;;;;;4.28;1.77;;;5.60;99.90;;;;;;4964729;28;20089;-62
2021/04/27 10:19:39;;;;;;;2.47;1.88;;;5.60;99.90;;;;;;4961297;28;20045;-64
2021/04/27 10:22:06;;;;;;;3.50;1.63;;;5.60;99.90;;;;;;4966001;28;20051;-63
2021/04/27 10:24:32;;;;;;;3.50;1.27;;;5.60;99.90;;;;;;4966476;28;20058;-63
2021/04/27 10:26:59;;;;;;;1.92;1.30;;;5.70;99.90;;;;;;4962448;28;20047;-63
2021/04/27 10:29:27;;;;;;;1.75;1.10;;;5.70;99.90;;;;;;4962957;28;20655;-63
2021/04/27 10:32:26;;;;;;;3.72;1.80;;;5.80;99.90;;;;;;4963612;28;20053;-63
2021/04/27 10:34:58;;;;;;;2.17;1.77;;;5.70;99.90;;;;;;4939670;28;20177;-65
2021/04/27 10:37:27;;;;;;;3.95;0.80;;;5.70;99.90;;;;;;4962451;28;20289;-63
2021/04/27 10:39:55;;;;;;;3.13;1.58;;;5.40;99.90;;;;;;4966719;28;20109;-62
2021/04/27 10:42:29;;;;;;;2.15;1.30;;;5.40;99.90;;;;;;4964992;28;20057;-65
2021/04/27 10:45:01;;;;;;;1.52;1.00;;;5.60;99.90;;;;;;4966823;28;20125;-66
2021/04/27 10:47:37;;;;;;;5.43;4.00;;;5.70;99.90;;;;;;4963420;28;20062;-63
2021/04/27 10:50:05;;;;;;;2.45;1.33;;;5.70;99.90;;;;;;4965235;28;20066;-64
2021/04/27 10:52:38;;;;;;;2.17;1.65;;;5.90;99.90;;;;;;4958879;28;20090;-62
2021/04/27 10:55:31;;;;;;;2.50;1.27;;;6.10;99.90;;;;;;4965878;28;20050;-63
2021/04/27 10:58:03;;;;;;;5.50;1.92;;;6.20;99.90;;;;;;4959235;28;20553;-64
2021/04/27 11:00:49;;;;;;;3.92;1.40;;;6.10;99.90;;;;;;4965051;28;20203;-63
2021/04/27 11:03:23;;;;;;;2.60;1.20;;;6.20;99.90;;;;;;4957826;28;20047;-65
2021/04/27 11:06:09;;;;;;;3.53;1.88;;;6.30;99.90;;;;;;4956578;28;20077;-63
2021/04/27 11:08:56;;;;;;;4.15;2.20;;;6.30;99.90;;;;;;4960572;28;20481;-63
2021/04/27 11:11:31;;;;;;;2.30;1.30;;;6.30;99.90;;;;;;4963603;28;20069;-63
2021/04/27 11:14:23;;;;;;;1.95;1.33;;;6.30;99.90;;;;;;4963318;28;20157;-63
2021/04/27 11:16:54;;;;;;;10.35;1.65;;;6.10;99.90;;;;;;4967543;28;20571;-63
2021/04/27 11:19:21;;;;;;;4.07;1.60;;;5.90;99.90;;;;;;4960910;28;20468;-62
2021/04/27 11:21:53;;;;;;;2.08;1.65;;;6.00;99.90;;;;;;4965175;28;20055;-63
2021/04/27 11:24:35;;;;;;;2.47;1.13;;;5.90;99.90;;;;;;4966178;28;20579;-62
2021/04/27 11:27:02;;;;;;;4.97;1.63;;;6.10;99.90;;;;;;4965625;28;20460;-62
2021/04/27 11:29:30;;;;;;;7.07;3.45;;;6.20;99.90;;;;;;4958006;28;20117;-62
2021/04/27 11:32:14;;;;;;;3.83;1.35;;;6.10;99.90;;;;;;4965705;28;20054;-63
2021/04/27 11:35:02;;;;;;;3.25;1.70;;;5.70;99.90;;;;;;4968653;28;20528;-62
2021/04/27 11:37:38;;;;;;;3.72;1.42;;;5.70;99.90;;;;;;4962416;28;20121;-63
2021/04/27 11:40:20;;;;;;;4.63;1.25;;;6.00;99.90;;;;;;4967543;28;20051;-63
2021/04/27 11:42:59;;;;;;;3.22;1.70;;;6.10;99.90;;;;;;4963517;28;20902;-62
2021/04/27 11:45:30;;;;;;;2.47;1.38;;;6.20;99.90;;;;;;4962218;28;20043;-62
2021/04/27 11:47:56;;;;;;;1.50;1.40;;;6.30;99.90;;;;;;4962725;28;20047;-62
2021/04/27 11:50:24;;;;;;;2.00;1.45;;;6.30;99.90;;;;;;4963930;28;20062;-60
2021/04/27 11:53:03;;;;;;;7.10;1.52;;;6.40;99.90;;;;;;4962734;28;20101;-64
2021/04/27 11:55:33;;;;;;;3.13;1.20;;;6.50;99.90;;;;;;4960826;28;20522;-65
2021/04/27 11:58:09;;;;;;;5.83;2.13;;;6.50;99.90;;;;;;4962889;28;20058;-62
2021/04/27 12:00:45;;;;;;;3.00;1.83;;;6.40;99.90;;;;;;4958349;28;20051;-64
2021/04/27 12:03:17;;;;;;;4.25;1.63;;;6.70;99.90;;;;;;4964141;28;20138;-66
2021/04/27 12:05:45;;;;;;;4.50;1.45;;;7.00;99.90;;;;;;4964980;28;20046;-63
2021/04/27 12:08:19;;;;;;;4.40;1.60;;;7.10;99.90;;;;;;4962682;28;20054;-63
2021/04/27 12:10:47;;;;;;;1.65;0.93;;;7.20;99.90;;;;;;4964208;28;20478;-65
2021/04/27 12:13:18;;;;;;;3.55;2.35;;;7.20;99.90;;;;;;4958674;28;20106;-68
2021/04/27 12:15:45;;;;;;;3.83;1.27;;;7.20;99.90;;;;;;4962831;28;20055;-64
2021/04/27 12:18:11;;;;;;;4.53;1.50;;;7.30;99.90;;;;;;4961468;28;20461;-65
2021/04/27 12:20:38;;;;;;;1.70;1.45;;;7.30;99.90;;;;;;4963736;28;20055;-66
2021/04/27 12:23:05;;;;;;;2.67;1.13;;;7.30;99.90;;;;;;4963455;28;20054;-64
2021/04/27 12:25:31;;;;;;;2.75;1.85;;;7.30;99.90;;;;;;4961937;28;20068;-66
2021/04/27 12:28:06;;;;;;;1.48;1.25;;;7.40;99.90;;;;;;4962586;28;20042;-65
2021/04/27 12:30:36;;;;;;;1.40;1.10;;;7.30;99.90;;;;;;4963299;28;20065;-65
2021/04/27 12:33:05;;;;;;;5.72;1.67;;;7.30;99.90;;;;;;4962883;28;20121;-66
2021/04/27 12:35:34;;;;;;;0.82;0.82;;;7.10;99.90;;;;;;4966520;28;20059;-64
2021/04/27 12:38:10;;;;;;;3.00;1.30;;;7.00;99.90;;;;;;4963762;28;20059;-64
2021/04/27 12:40:58;;;;;;;3.35;1.23;;;7.00;99.90;;;;;;4965977;28;20047;-64
2021/04/27 12:43:32;;;;;;;5.97;1.90;;;7.20;99.90;;;;;;4958915;28;20109;-66
2021/04/27 12:46:00;;;;;;;1.58;1.45;;;6.90;99.90;;;;;;4964623;28;20059;-65
2021/04/27 12:48:29;;;;;;;6.72;1.33;;;6.90;99.90;;;;;;4959940;28;20556;-68
2021/04/27 12:51:04;;;;;;;2.72;1.30;;;7.00;99.90;;;;;;4965088;28;20043;-66
2021/04/27 12:53:38;;;;;;;3.33;1.00;;;7.20;99.90;;;;;;4959243;28;20609;-67
2021/04/27 12:56:16;;;;;;;2.17;1.10;;;7.10;99.90;;;;;;4963187;28;20117;-64
2021/04/27 12:58:44;;;;;;;2.88;1.42;;;7.30;99.90;;;;;;4963529;28;20457;-64
2021/04/27 13:01:19;;;;;;;1.52;1.23;;;7.30;99.90;;;;;;4962580;28;20054;-66
2021/04/27 13:03:47;;;;;;;4.63;1.65;;;7.00;99.90;;;;;;4961653;28;20134;-63
2021/04/27 13:06:24;;;;;;;2.08;1.92;;;7.00;99.90;;;;;;4959898;28;20042;-65
2021/04/27 13:09:07;;;;;;;1.15;1.05;;;7.40;99.90;;;;;;4962948;28;20142;-66
2021/04/27 13:11:34;;;;;;;4.22;1.02;;;7.70;99.90;;;;;;4953556;28;20062;-65
2021/04/27 13:14:19;;;;;;;6.18;1.48;;;7.80;99.90;;;;;;4975378;28;20393;-65
2021/04/27 13:16:46;;;;;;;2.58;1.40;;;7.30;99.90;;;;;;4961413;28;20066;-64
2021/04/27 13:19:14;;;;;;;1.88;1.10;;;6.80;99.90;;;;;;4961074;28;20058;-64
2021/04/27 13:22:04;;;;;;;1.88;1.42;;;6.60;99.90;;;;;;4961293;28;20059;-66